< < Back
Terminal Aerodrome Forecast


Current Version              Previous Versions:   1  2  3  4  5  6  7  8  9  

Terminal Aerodrome Forecast

180
FTUS42 KMLB 250500
TAFMCO
TAF
KMCO 250529Z 2506/2606 31007KT P6SM FEW200
     FM251700 28005KT P6SM FEW150 SCT250
     FM252300 25005KT P6SM SCT100 BKN250=



Latest METAR

728
SAUS70 KWBC 251200 RRB
MTRMCO
METAR KMCO 251153Z 33006KT 10SM SCT250 07/04 A3009 RMK AO2 SLP190 70005
T00720039 10089 20050 53014


USA.gov is the U.S. government's official web portal to all federal, state and local government web resources and services.